Friday, November 24, 2017, 8:20 AM EST
Back to Local

KACY, Atlantic City International

Location: Absecon, NJ, United States Lat: 39.467
Local Time: 8:20 AM EST (13:20 GMT) Lon: -74.583
Time Zone: US/Eastern Elev: 75 ft

Show me the last for .
Show Coded

Time T Td Feel RH Dir Speed Gust Alt SLP Vis Weather Sky Remarks
2017-11-24 07:54 32 27 - 81 - Calm - 30.08 30.08 10 CLR None
2017-11-24 06:54 26 22 - 84 - Calm - 30.08 30.08 10 CLR 6-hr Min Temp (7am): 24.1°F
6-hr Max Temp (7am): 30.0°F
2017-11-24 05:54 26 22 - 84 - Calm - 30.08 30.08 10 CLR None
2017-11-24 04:54 27 24 - 88 - Calm - 30.08 30.08 10 CLR None
2017-11-24 03:54 26 23 - 87 - Calm - 30.06 30.06 10 CLR None
2017-11-24 02:54 26 22 - 84 - Calm - 30.07 30.07 10 CLR None
2017-11-24 01:54 27 22 - 80 - Calm - 30.06 30.06 10 CLR None
2017-11-24 00:54 29 23 - 78 - Calm - 30.07 30.07 10 CLR 6-hr Min Temp (1am): 26.1°F
6-hr Max Temp (1am): 32.0°F
2017-11-23 23:54 26 22 - 84 - Calm - 30.08 30.08 10 CLR 24-hr Min Temp (12am): 25.0°F
24-hr Max Temp (12am): 43.0°F
2017-11-23 22:54 30 23 - 74 - Calm - 30.08 30.08 10 CLR None
2017-11-23 21:54 30 23 - 74 - Calm - 30.07 30.07 10 CLR None
2017-11-23 20:54 28 22 - 77 - Calm - 30.06 30.06 10 CLR None
2017-11-23 19:54 27 22 - 80 - Calm - 30.05 30.05 10 CLR None
2017-11-23 18:54 32 22 - 65 - Calm - 30.06 30.06 10 CLR 6-hr Min Temp (7pm): 30.0°F
6-hr Max Temp (7pm): 43.0°F
2017-11-23 17:54 35 22 - 58 - Calm - 30.06 30.06 10 CLR None
2017-11-23 16:54 39 21 36 48 250° 5 - 30.05 30.05 10 CLR None
2017-11-23 15:54 42 21 38 42 260° 7 - 30.05 30.06 10 CLR None
2017-11-23 14:54 42 21 38 42 250° 6 - 30.06 30.06 10 CLR None
2017-11-23 13:54 42 21 37 42 310° 8 - 30.07 30.07 10 CLR None
2017-11-23 12:54 41 22 37 46 280° 6 - 30.07 30.07 10 CLR 6-hr Min Temp (1pm): 28.0°F
6-hr Max Temp (1pm): 41.0°F
2017-11-23 11:54 38 21 33 50 340° 6 - 30.10 30.10 10 CLR None
2017-11-23 10:54 36 21 30 54 310° 8 - 30.13 30.13 10 CLR None
2017-11-23 09:54 35 21 27 56 330° 12 - 30.15 30.15 10 CLR None
2017-11-23 08:54 34 22 26 60 320° 10 - 30.16 30.16 10 CLR None

Support USWX by starting your Amazon purchase here.